sensor_id;sensor_type;location;lat;lon;timestamp;P1;durP1;ratioP1;P2;durP2;ratioP2
42332;SDS011;27984;51.476;5.702;2023-07-20T00:02:03;9.93;;;4.35;;
42332;SDS011;27984;51.476;5.702;2023-07-20T00:04:30;11.05;;;4.22;;
42332;SDS011;27984;51.476;5.702;2023-07-20T00:06:57;10.98;;;4.30;;
42332;SDS011;27984;51.476;5.702;2023-07-20T00:09:23;10.02;;;4.53;;
42332;SDS011;27984;51.476;5.702;2023-07-20T00:11:50;11.40;;;4.55;;
42332;SDS011;27984;51.476;5.702;2023-07-20T00:14:16;10.25;;;4.20;;
42332;SDS011;27984;51.476;5.702;2023-07-20T00:16:43;7.60;;;4.95;;
42332;SDS011;27984;51.476;5.702;2023-07-20T00:19:09;8.55;;;4.57;;
42332;SDS011;27984;51.476;5.702;2023-07-20T00:21:35;9.77;;;5.07;;
42332;SDS011;27984;51.476;5.702;2023-07-20T00:24:02;9.77;;;5.38;;
42332;SDS011;27984;51.476;5.702;2023-07-20T00:26:29;7.68;;;4.97;;
42332;SDS011;27984;51.476;5.702;2023-07-20T00:28:55;9.02;;;4.97;;
42332;SDS011;27984;51.476;5.702;2023-07-20T00:31:21;11.55;;;4.90;;
42332;SDS011;27984;51.476;5.702;2023-07-20T00:33:47;10.30;;;5.38;;
42332;SDS011;27984;51.476;5.702;2023-07-20T00:36:13;10.13;;;5.32;;
42332;SDS011;27984;51.476;5.702;2023-07-20T00:38:39;9.27;;;5.22;;
42332;SDS011;27984;51.476;5.702;2023-07-20T00:41:06;9.43;;;5.20;;
42332;SDS011;27984;51.476;5.702;2023-07-20T00:43:32;7.85;;;5.00;;
42332;SDS011;27984;51.476;5.702;2023-07-20T00:45:58;10.27;;;5.07;;
42332;SDS011;27984;51.476;5.702;2023-07-20T00:48:24;8.95;;;4.97;;
42332;SDS011;27984;51.476;5.702;2023-07-20T00:50:50;11.52;;;5.43;;
42332;SDS011;27984;51.476;5.702;2023-07-20T00:53:16;9.90;;;5.63;;
42332;SDS011;27984;51.476;5.702;2023-07-20T00:55:42;8.85;;;5.07;;
42332;SDS011;27984;51.476;5.702;2023-07-20T00:58:09;10.00;;;5.63;;
42332;SDS011;27984;51.476;5.702;2023-07-20T01:00:35;9.38;;;5.45;;
42332;SDS011;27984;51.476;5.702;2023-07-20T01:03:01;9.48;;;5.43;;
42332;SDS011;27984;51.476;5.702;2023-07-20T01:05:33;10.98;;;5.82;;
42332;SDS011;27984;51.476;5.702;2023-07-20T01:08:03;10.90;;;5.22;;
42332;SDS011;27984;51.476;5.702;2023-07-20T01:10:39;9.63;;;5.82;;
42332;SDS011;27984;51.476;5.702;2023-07-20T01:13:06;10.40;;;5.90;;
42332;SDS011;27984;51.476;5.702;2023-07-20T01:15:35;15.30;;;6.30;;
42332;SDS011;27984;51.476;5.702;2023-07-20T01:18:02;10.13;;;5.63;;
42332;SDS011;27984;51.476;5.702;2023-07-20T01:20:29;10.70;;;5.88;;
42332;SDS011;27984;51.476;5.702;2023-07-20T01:25:55;12.38;;;5.70;;
42332;SDS011;27984;51.476;5.702;2023-07-20T01:28:35;15.77;;;6.07;;
42332;SDS011;27984;51.476;5.702;2023-07-20T01:33:38;8.82;;;6.05;;
42332;SDS011;27984;51.476;5.702;2023-07-20T01:36:04;10.02;;;5.95;;
42332;SDS011;27984;51.476;5.702;2023-07-20T01:38:31;10.18;;;6.00;;
42332;SDS011;27984;51.476;5.702;2023-07-20T01:40:57;10.13;;;6.15;;
42332;SDS011;27984;51.476;5.702;2023-07-20T01:43:23;11.35;;;6.07;;
42332;SDS011;27984;51.476;5.702;2023-07-20T01:45:49;11.60;;;6.47;;
42332;SDS011;27984;51.476;5.702;2023-07-20T01:48:15;13.05;;;6.10;;
42332;SDS011;27984;51.476;5.702;2023-07-20T01:50:41;12.85;;;6.57;;
42332;SDS011;27984;51.476;5.702;2023-07-20T01:53:07;13.02;;;6.75;;
42332;SDS011;27984;51.476;5.702;2023-07-20T01:55:33;14.35;;;6.35;;
42332;SDS011;27984;51.476;5.702;2023-07-20T01:57:59;13.85;;;6.43;;
42332;SDS011;27984;51.476;5.702;2023-07-20T02:00:26;10.55;;;5.78;;
42332;SDS011;27984;51.476;5.702;2023-07-20T02:02:52;10.10;;;6.70;;
42332;SDS011;27984;51.476;5.702;2023-07-20T02:05:18;13.15;;;6.32;;
42332;SDS011;27984;51.476;5.702;2023-07-20T02:07:44;10.93;;;6.07;;
42332;SDS011;27984;51.476;5.702;2023-07-20T02:10:10;12.70;;;6.10;;
42332;SDS011;27984;51.476;5.702;2023-07-20T02:12:36;15.63;;;6.53;;
42332;SDS011;27984;51.476;5.702;2023-07-20T02:15:02;14.50;;;7.45;;
42332;SDS011;27984;51.476;5.702;2023-07-20T02:17:28;13.10;;;6.90;;
42332;SDS011;27984;51.476;5.702;2023-07-20T02:19:55;12.93;;;6.90;;
42332;SDS011;27984;51.476;5.702;2023-07-20T02:22:22;15.85;;;7.32;;
42332;SDS011;27984;51.476;5.702;2023-07-20T02:24:48;13.77;;;7.32;;
42332;SDS011;27984;51.476;5.702;2023-07-20T02:27:15;15.05;;;7.65;;
42332;SDS011;27984;51.476;5.702;2023-07-20T02:29:41;14.90;;;7.90;;
42332;SDS011;27984;51.476;5.702;2023-07-20T02:32:07;14.68;;;8.50;;
42332;SDS011;27984;51.476;5.702;2023-07-20T02:34:34;18.55;;;9.00;;
42332;SDS011;27984;51.476;5.702;2023-07-20T02:37:00;17.58;;;11.00;;
42332;SDS011;27984;51.476;5.702;2023-07-20T02:39:27;14.95;;;10.27;;
42332;SDS011;27984;51.476;5.702;2023-07-20T02:41:53;17.90;;;11.00;;
42332;SDS011;27984;51.476;5.702;2023-07-20T02:44:19;18.08;;;11.60;;
42332;SDS011;27984;51.476;5.702;2023-07-20T02:46:45;23.02;;;12.95;;
42332;SDS011;27984;51.476;5.702;2023-07-20T02:49:11;18.58;;;12.48;;
42332;SDS011;27984;51.476;5.702;2023-07-20T02:51:37;17.05;;;12.68;;
42332;SDS011;27984;51.476;5.702;2023-07-20T02:54:03;20.48;;;13.30;;
42332;SDS011;27984;51.476;5.702;2023-07-20T02:56:29;18.38;;;13.15;;
42332;SDS011;27984;51.476;5.702;2023-07-20T02:58:55;20.67;;;13.40;;
42332;SDS011;27984;51.476;5.702;2023-07-20T03:01:22;19.35;;;12.43;;
42332;SDS011;27984;51.476;5.702;2023-07-20T03:03:48;15.90;;;12.65;;
42332;SDS011;27984;51.476;5.702;2023-07-20T03:06:15;16.45;;;12.45;;
42332;SDS011;27984;51.476;5.702;2023-07-20T03:08:42;16.58;;;12.80;;
42332;SDS011;27984;51.476;5.702;2023-07-20T03:11:13;18.45;;;12.73;;
42332;SDS011;27984;51.476;5.702;2023-07-20T03:13:40;18.20;;;12.27;;
42332;SDS011;27984;51.476;5.702;2023-07-20T03:16:07;20.02;;;12.40;;
42332;SDS011;27984;51.476;5.702;2023-07-20T03:18:36;19.88;;;12.68;;
42332;SDS011;27984;51.476;5.702;2023-07-20T03:21:02;19.00;;;13.05;;
42332;SDS011;27984;51.476;5.702;2023-07-20T03:23:28;19.75;;;13.30;;
42332;SDS011;27984;51.476;5.702;2023-07-20T03:25:54;18.48;;;13.13;;
42332;SDS011;27984;51.476;5.702;2023-07-20T03:28:20;16.95;;;12.88;;
42332;SDS011;27984;51.476;5.702;2023-07-20T03:30:46;16.42;;;12.10;;
42332;SDS011;27984;51.476;5.702;2023-07-20T03:33:12;16.52;;;11.88;;
42332;SDS011;27984;51.476;5.702;2023-07-20T03:35:38;18.55;;;12.90;;
42332;SDS011;27984;51.476;5.702;2023-07-20T03:38:04;17.88;;;12.10;;
42332;SDS011;27984;51.476;5.702;2023-07-20T03:40:30;17.25;;;11.95;;
42332;SDS011;27984;51.476;5.702;2023-07-20T03:42:55;18.13;;;12.48;;
42332;SDS011;27984;51.476;5.702;2023-07-20T03:45:21;15.00;;;11.45;;
42332;SDS011;27984;51.476;5.702;2023-07-20T03:47:49;17.48;;;12.02;;
42332;SDS011;27984;51.476;5.702;2023-07-20T03:50:15;17.30;;;11.50;;
42332;SDS011;27984;51.476;5.702;2023-07-20T03:52:41;15.57;;;11.82;;
42332;SDS011;27984;51.476;5.702;2023-07-20T03:55:07;14.40;;;11.15;;
42332;SDS011;27984;51.476;5.702;2023-07-20T03:57:33;13.63;;;9.95;;
42332;SDS011;27984;51.476;5.702;2023-07-20T03:59:59;15.13;;;11.10;;
42332;SDS011;27984;51.476;5.702;2023-07-20T04:02:25;13.38;;;10.02;;
42332;SDS011;27984;51.476;5.702;2023-07-20T04:04:51;13.23;;;9.90;;
42332;SDS011;27984;51.476;5.702;2023-07-20T04:07:17;12.60;;;9.98;;
42332;SDS011;27984;51.476;5.702;2023-07-20T04:09:43;12.20;;;10.18;;
42332;SDS011;27984;51.476;5.702;2023-07-20T04:12:08;12.90;;;10.23;;
42332;SDS011;27984;51.476;5.702;2023-07-20T04:14:35;13.70;;;10.25;;
42332;SDS011;27984;51.476;5.702;2023-07-20T04:17:00;12.30;;;10.48;;
42332;SDS011;27984;51.476;5.702;2023-07-20T04:19:26;14.70;;;11.13;;
42332;SDS011;27984;51.476;5.702;2023-07-20T04:21:52;16.08;;;10.60;;
42332;SDS011;27984;51.476;5.702;2023-07-20T04:24:18;15.43;;;11.45;;
42332;SDS011;27984;51.476;5.702;2023-07-20T04:26:44;15.45;;;10.90;;
42332;SDS011;27984;51.476;5.702;2023-07-20T04:29:10;16.60;;;13.18;;
42332;SDS011;27984;51.476;5.702;2023-07-20T04:31:36;16.23;;;10.80;;
42332;SDS011;27984;51.476;5.702;2023-07-20T04:34:02;14.85;;;10.15;;
42332;SDS011;27984;51.476;5.702;2023-07-20T04:36:28;11.77;;;10.25;;
42332;SDS011;27984;51.476;5.702;2023-07-20T04:38:54;12.90;;;10.32;;
42332;SDS011;27984;51.476;5.702;2023-07-20T04:41:20;14.77;;;11.50;;
42332;SDS011;27984;51.476;5.702;2023-07-20T04:43:46;15.68;;;11.23;;
42332;SDS011;27984;51.476;5.702;2023-07-20T04:46:12;16.75;;;11.32;;
42332;SDS011;27984;51.476;5.702;2023-07-20T04:48:38;13.55;;;10.85;;
42332;SDS011;27984;51.476;5.702;2023-07-20T04:51:05;15.15;;;10.68;;
42332;SDS011;27984;51.476;5.702;2023-07-20T04:53:31;17.38;;;10.65;;
42332;SDS011;27984;51.476;5.702;2023-07-20T04:55:57;13.20;;;10.90;;
42332;SDS011;27984;51.476;5.702;2023-07-20T04:58:23;13.45;;;10.40;;
42332;SDS011;27984;51.476;5.702;2023-07-20T05:00:49;12.05;;;10.18;;
42332;SDS011;27984;51.476;5.702;2023-07-20T05:03:16;13.07;;;10.45;;
42332;SDS011;27984;51.476;5.702;2023-07-20T05:05:42;14.23;;;9.93;;
42332;SDS011;27984;51.476;5.702;2023-07-20T05:08:08;12.80;;;9.65;;
42332;SDS011;27984;51.476;5.702;2023-07-20T05:10:34;12.88;;;9.30;;
42332;SDS011;27984;51.476;5.702;2023-07-20T05:13:00;11.52;;;9.70;;
42332;SDS011;27984;51.476;5.702;2023-07-20T05:15:26;10.30;;;8.77;;
42332;SDS011;27984;51.476;5.702;2023-07-20T05:17:52;12.75;;;8.85;;
42332;SDS011;27984;51.476;5.702;2023-07-20T05:20:18;9.88;;;8.93;;
42332;SDS011;27984;51.476;5.702;2023-07-20T05:22:44;13.40;;;8.63;;
42332;SDS011;27984;51.476;5.702;2023-07-20T05:25:10;9.32;;;7.70;;
42332;SDS011;27984;51.476;5.702;2023-07-20T05:27:36;9.30;;;7.93;;
42332;SDS011;27984;51.476;5.702;2023-07-20T05:30:03;8.48;;;7.35;;
42332;SDS011;27984;51.476;5.702;2023-07-20T05:32:29;8.57;;;7.65;;
42332;SDS011;27984;51.476;5.702;2023-07-20T05:34:55;7.88;;;6.68;;
42332;SDS011;27984;51.476;5.702;2023-07-20T05:37:21;6.70;;;6.10;;
42332;SDS011;27984;51.476;5.702;2023-07-20T05:39:47;7.65;;;6.10;;
42332;SDS011;27984;51.476;5.702;2023-07-20T05:42:13;7.05;;;6.35;;
42332;SDS011;27984;51.476;5.702;2023-07-20T05:44:39;7.80;;;6.32;;
42332;SDS011;27984;51.476;5.702;2023-07-20T05:47:05;7.22;;;5.10;;
42332;SDS011;27984;51.476;5.702;2023-07-20T05:49:31;5.18;;;4.68;;
42332;SDS011;27984;51.476;5.702;2023-07-20T05:51:57;5.00;;;4.05;;
42332;SDS011;27984;51.476;5.702;2023-07-20T05:54:24;4.38;;;3.80;;
42332;SDS011;27984;51.476;5.702;2023-07-20T05:56:50;5.05;;;4.35;;
42332;SDS011;27984;51.476;5.702;2023-07-20T05:59:16;5.28;;;4.53;;
42332;SDS011;27984;51.476;5.702;2023-07-20T06:01:43;8.18;;;4.32;;
42332;SDS011;27984;51.476;5.702;2023-07-20T06:04:09;5.50;;;4.28;;
42332;SDS011;27984;51.476;5.702;2023-07-20T06:06:35;6.32;;;3.92;;
42332;SDS011;27984;51.476;5.702;2023-07-20T06:09:01;5.65;;;3.35;;
42332;SDS011;27984;51.476;5.702;2023-07-20T06:11:34;5.22;;;3.67;;
42332;SDS011;27984;51.476;5.702;2023-07-20T06:14:00;4.80;;;3.78;;
42332;SDS011;27984;51.476;5.702;2023-07-20T06:16:26;3.63;;;3.28;;
42332;SDS011;27984;51.476;5.702;2023-07-20T06:18:52;5.03;;;3.95;;
42332;SDS011;27984;51.476;5.702;2023-07-20T06:21:18;5.47;;;4.70;;
42332;SDS011;27984;51.476;5.702;2023-07-20T06:23:44;5.90;;;5.20;;
42332;SDS011;27984;51.476;5.702;2023-07-20T06:26:11;6.10;;;4.78;;
42332;SDS011;27984;51.476;5.702;2023-07-20T06:28:38;4.60;;;4.20;;
42332;SDS011;27984;51.476;5.702;2023-07-20T06:31:03;5.70;;;4.78;;
42332;SDS011;27984;51.476;5.702;2023-07-20T06:33:29;6.25;;;5.50;;
42332;SDS011;27984;51.476;5.702;2023-07-20T06:35:55;7.40;;;5.40;;
42332;SDS011;27984;51.476;5.702;2023-07-20T06:38:24;6.00;;;4.72;;
42332;SDS011;27984;51.476;5.702;2023-07-20T06:40:50;7.43;;;4.85;;
42332;SDS011;27984;51.476;5.702;2023-07-20T06:43:16;5.38;;;4.80;;
42332;SDS011;27984;51.476;5.702;2023-07-20T06:45:43;5.70;;;4.72;;
42332;SDS011;27984;51.476;5.702;2023-07-20T06:48:09;4.47;;;3.95;;
42332;SDS011;27984;51.476;5.702;2023-07-20T06:50:35;5.78;;;3.90;;
42332;SDS011;27984;51.476;5.702;2023-07-20T06:53:01;4.25;;;3.60;;
42332;SDS011;27984;51.476;5.702;2023-07-20T06:55:29;8.02;;;3.38;;
42332;SDS011;27984;51.476;5.702;2023-07-20T06:57:55;2.88;;;2.58;;
42332;SDS011;27984;51.476;5.702;2023-07-20T07:00:21;2.35;;;1.70;;
42332;SDS011;27984;51.476;5.702;2023-07-20T07:02:47;1.38;;;1.27;;
42332;SDS011;27984;51.476;5.702;2023-07-20T07:05:13;2.38;;;1.30;;
42332;SDS011;27984;51.476;5.702;2023-07-20T07:07:42;1.60;;;1.50;;
42332;SDS011;27984;51.476;5.702;2023-07-20T07:10:08;4.10;;;1.85;;
42332;SDS011;27984;51.476;5.702;2023-07-20T07:12:34;1.73;;;1.40;;
42332;SDS011;27984;51.476;5.702;2023-07-20T07:15:00;1.98;;;1.55;;
42332;SDS011;27984;51.476;5.702;2023-07-20T07:17:26;2.60;;;1.65;;
42332;SDS011;27984;51.476;5.702;2023-07-20T07:19:52;1.70;;;1.60;;
42332;SDS011;27984;51.476;5.702;2023-07-20T07:22:20;3.25;;;1.80;;
42332;SDS011;27984;51.476;5.702;2023-07-20T07:24:46;2.35;;;1.85;;
42332;SDS011;27984;51.476;5.702;2023-07-20T07:27:12;2.97;;;2.10;;
42332;SDS011;27984;51.476;5.702;2023-07-20T07:29:41;2.72;;;2.05;;
42332;SDS011;27984;51.476;5.702;2023-07-20T07:32:09;2.97;;;2.05;;
42332;SDS011;27984;51.476;5.702;2023-07-20T07:34:36;3.75;;;1.90;;
42332;SDS011;27984;51.476;5.702;2023-07-20T07:37:02;2.30;;;2.08;;
42332;SDS011;27984;51.476;5.702;2023-07-20T07:39:28;3.13;;;2.30;;
42332;SDS011;27984;51.476;5.702;2023-07-20T07:41:54;2.55;;;1.95;;
42332;SDS011;27984;51.476;5.702;2023-07-20T07:44:20;2.42;;;2.10;;
42332;SDS011;27984;51.476;5.702;2023-07-20T07:46:46;3.45;;;2.30;;
42332;SDS011;27984;51.476;5.702;2023-07-20T07:49:12;3.90;;;1.90;;
42332;SDS011;27984;51.476;5.702;2023-07-20T07:51:38;3.28;;;1.90;;
42332;SDS011;27984;51.476;5.702;2023-07-20T07:54:04;2.08;;;1.88;;
42332;SDS011;27984;51.476;5.702;2023-07-20T07:56:30;7.00;;;2.50;;
42332;SDS011;27984;51.476;5.702;2023-07-20T07:58:56;2.70;;;2.50;;
42332;SDS011;27984;51.476;5.702;2023-07-20T08:01:22;4.28;;;2.60;;
42332;SDS011;27984;51.476;5.702;2023-07-20T08:03:48;5.63;;;2.20;;
42332;SDS011;27984;51.476;5.702;2023-07-20T08:06:14;3.05;;;2.03;;
42332;SDS011;27984;51.476;5.702;2023-07-20T08:08:40;2.38;;;1.88;;
42332;SDS011;27984;51.476;5.702;2023-07-20T08:11:07;1.77;;;1.67;;
42332;SDS011;27984;51.476;5.702;2023-07-20T08:13:33;1.40;;;1.30;;
42332;SDS011;27984;51.476;5.702;2023-07-20T08:15:59;1.90;;;1.17;;
42332;SDS011;27984;51.476;5.702;2023-07-20T08:18:27;2.72;;;1.23;;
42332;SDS011;27984;51.476;5.702;2023-07-20T08:20:53;1.67;;;1.33;;
42332;SDS011;27984;51.476;5.702;2023-07-20T08:23:19;21.20;;;5.85;;
42332;SDS011;27984;51.476;5.702;2023-07-20T08:25:45;4.75;;;1.60;;
42332;SDS011;27984;51.476;5.702;2023-07-20T08:28:11;1.17;;;1.02;;
42332;SDS011;27984;51.476;5.702;2023-07-20T08:30:41;2.05;;;1.20;;
42332;SDS011;27984;51.476;5.702;2023-07-20T08:33:08;2.08;;;1.40;;
42332;SDS011;27984;51.476;5.702;2023-07-20T08:35:34;3.13;;;1.00;;
42332;SDS011;27984;51.476;5.702;2023-07-20T08:38:00;1.63;;;1.00;;
42332;SDS011;27984;51.476;5.702;2023-07-20T08:40:27;1.20;;;1.00;;
42332;SDS011;27984;51.476;5.702;2023-07-20T08:42:54;3.17;;;1.20;;
42332;SDS011;27984;51.476;5.702;2023-07-20T08:45:20;2.05;;;1.15;;
42332;SDS011;27984;51.476;5.702;2023-07-20T08:47:47;1.60;;;1.00;;
42332;SDS011;27984;51.476;5.702;2023-07-20T08:50:14;1.92;;;0.80;;
42332;SDS011;27984;51.476;5.702;2023-07-20T08:52:40;1.83;;;0.80;;
42332;SDS011;27984;51.476;5.702;2023-07-20T08:55:06;1.80;;;0.73;;
42332;SDS011;27984;51.476;5.702;2023-07-20T08:57:33;0.93;;;0.70;;
42332;SDS011;27984;51.476;5.702;2023-07-20T09:00:02;0.82;;;0.77;;
42332;SDS011;27984;51.476;5.702;2023-07-20T09:02:48;1.88;;;0.77;;
42332;SDS011;27984;51.476;5.702;2023-07-20T09:05:15;2.25;;;0.80;;
42332;SDS011;27984;51.476;5.702;2023-07-20T09:07:41;1.45;;;0.90;;
42332;SDS011;27984;51.476;5.702;2023-07-20T09:10:07;1.55;;;0.88;;
42332;SDS011;27984;51.476;5.702;2023-07-20T09:12:40;0.70;;;0.70;;
42332;SDS011;27984;51.476;5.702;2023-07-20T09:15:08;1.17;;;1.07;;
42332;SDS011;27984;51.476;5.702;2023-07-20T09:17:35;0.93;;;0.60;;
42332;SDS011;27984;51.476;5.702;2023-07-20T09:20:02;0.60;;;0.50;;
42332;SDS011;27984;51.476;5.702;2023-07-20T09:22:32;0.80;;;0.80;;
42332;SDS011;27984;51.476;5.702;2023-07-20T09:24:58;0.93;;;0.75;;
42332;SDS011;27984;51.476;5.702;2023-07-20T09:27:44;1.52;;;1.00;;
42332;SDS011;27984;51.476;5.702;2023-07-20T09:30:11;0.70;;;0.70;;
42332;SDS011;27984;51.476;5.702;2023-07-20T09:32:45;2.30;;;0.60;;
42332;SDS011;27984;51.476;5.702;2023-07-20T09:35:15;1.55;;;0.60;;
42332;SDS011;27984;51.476;5.702;2023-07-20T09:38:03;2.90;;;0.63;;
42332;SDS011;27984;51.476;5.702;2023-07-20T09:40:28;1.08;;;0.60;;
42332;SDS011;27984;51.476;5.702;2023-07-20T09:42:54;3.17;;;0.93;;
42332;SDS011;27984;51.476;5.702;2023-07-20T09:45:49;3.35;;;0.88;;
42332;SDS011;27984;51.476;5.702;2023-07-20T09:48:15;1.83;;;0.60;;
42332;SDS011;27984;51.476;5.702;2023-07-20T09:50:42;1.00;;;0.80;;
42332;SDS011;27984;51.476;5.702;2023-07-20T09:53:12;2.33;;;0.90;;
42332;SDS011;27984;51.476;5.702;2023-07-20T09:55:43;1.30;;;1.00;;
42332;SDS011;27984;51.476;5.702;2023-07-20T09:58:15;1.73;;;1.00;;
42332;SDS011;27984;51.476;5.702;2023-07-20T10:00:45;2.25;;;1.00;;
42332;SDS011;27984;51.476;5.702;2023-07-20T10:03:19;2.13;;;1.15;;
42332;SDS011;27984;51.476;5.702;2023-07-20T10:05:56;1.95;;;0.90;;
42332;SDS011;27984;51.476;5.702;2023-07-20T10:08:24;0.90;;;0.80;;
42332;SDS011;27984;51.476;5.702;2023-07-20T10:10:50;0.93;;;0.82;;
42332;SDS011;27984;51.476;5.702;2023-07-20T10:13:26;1.40;;;0.85;;
42332;SDS011;27984;51.476;5.702;2023-07-20T10:16:03;2.10;;;0.80;;
42332;SDS011;27984;51.476;5.702;2023-07-20T10:21:01;1.08;;;0.70;;
42332;SDS011;27984;51.476;5.702;2023-07-20T10:23:29;1.88;;;0.70;;
42332;SDS011;27984;51.476;5.702;2023-07-20T10:25:55;3.08;;;0.80;;
42332;SDS011;27984;51.476;5.702;2023-07-20T10:28:22;1.73;;;0.60;;
42332;SDS011;27984;51.476;5.702;2023-07-20T10:30:48;0.93;;;0.60;;
42332;SDS011;27984;51.476;5.702;2023-07-20T10:33:14;2.08;;;0.90;;
42332;SDS011;27984;51.476;5.702;2023-07-20T10:35:50;1.77;;;0.60;;
42332;SDS011;27984;51.476;5.702;2023-07-20T10:38:18;0.70;;;0.60;;
42332;SDS011;27984;51.476;5.702;2023-07-20T10:40:53;3.80;;;0.80;;
42332;SDS011;27984;51.476;5.702;2023-07-20T10:43:19;1.52;;;0.70;;
42332;SDS011;27984;51.476;5.702;2023-07-20T10:45:50;3.25;;;0.75;;
42332;SDS011;27984;51.476;5.702;2023-07-20T10:50:45;2.33;;;0.65;;
42332;SDS011;27984;51.476;5.702;2023-07-20T10:53:16;2.08;;;0.90;;
42332;SDS011;27984;51.476;5.702;2023-07-20T10:55:42;0.80;;;0.60;;
42332;SDS011;27984;51.476;5.702;2023-07-20T10:58:10;0.98;;;0.90;;
42332;SDS011;27984;51.476;5.702;2023-07-20T11:00:36;1.10;;;0.73;;
42332;SDS011;27984;51.476;5.702;2023-07-20T11:03:02;1.85;;;0.80;;
42332;SDS011;27984;51.476;5.702;2023-07-20T11:05:38;1.13;;;0.63;;
42332;SDS011;27984;51.476;5.702;2023-07-20T11:08:06;1.52;;;0.60;;
42332;SDS011;27984;51.476;5.702;2023-07-20T11:10:34;1.38;;;0.70;;
42332;SDS011;27984;51.476;5.702;2023-07-20T11:13:16;1.10;;;0.60;;
42332;SDS011;27984;51.476;5.702;2023-07-20T11:15:46;1.13;;;0.57;;
42332;SDS011;27984;51.476;5.702;2023-07-20T11:18:12;1.02;;;0.68;;
42332;SDS011;27984;51.476;5.702;2023-07-20T11:20:39;3.40;;;0.60;;
42332;SDS011;27984;51.476;5.702;2023-07-20T11:23:05;1.42;;;0.68;;
42332;SDS011;27984;51.476;5.702;2023-07-20T11:25:38;1.35;;;0.68;;
42332;SDS011;27984;51.476;5.702;2023-07-20T11:28:06;2.38;;;0.60;;
42332;SDS011;27984;51.476;5.702;2023-07-20T11:30:33;2.08;;;0.80;;
42332;SDS011;27984;51.476;5.702;2023-07-20T11:32:59;3.33;;;0.90;;
42332;SDS011;27984;51.476;5.702;2023-07-20T11:35:25;1.00;;;0.60;;
42332;SDS011;27984;51.476;5.702;2023-07-20T11:37:51;3.17;;;0.52;;
42332;SDS011;27984;51.476;5.702;2023-07-20T11:40:17;1.05;;;0.80;;
42332;SDS011;27984;51.476;5.702;2023-07-20T11:42:43;1.63;;;0.63;;
42332;SDS011;27984;51.476;5.702;2023-07-20T11:45:10;2.85;;;0.80;;
42332;SDS011;27984;51.476;5.702;2023-07-20T11:47:39;1.85;;;0.45;;
42332;SDS011;27984;51.476;5.702;2023-07-20T11:50:09;1.80;;;0.70;;
42332;SDS011;27984;51.476;5.702;2023-07-20T11:52:36;0.60;;;0.50;;
42332;SDS011;27984;51.476;5.702;2023-07-20T11:55:02;3.30;;;0.60;;
42332;SDS011;27984;51.476;5.702;2023-07-20T11:57:29;0.90;;;0.55;;
42332;SDS011;27984;51.476;5.702;2023-07-20T11:59:55;0.68;;;0.60;;
42332;SDS011;27984;51.476;5.702;2023-07-20T12:02:22;1.70;;;0.55;;
42332;SDS011;27984;51.476;5.702;2023-07-20T12:04:50;1.17;;;0.60;;
42332;SDS011;27984;51.476;5.702;2023-07-20T12:07:18;1.67;;;0.50;;
42332;SDS011;27984;51.476;5.702;2023-07-20T12:09:44;3.08;;;0.60;;
42332;SDS011;27984;51.476;5.702;2023-07-20T12:12:10;1.23;;;0.88;;
42332;SDS011;27984;51.476;5.702;2023-07-20T12:14:37;2.00;;;0.73;;
42332;SDS011;27984;51.476;5.702;2023-07-20T12:17:03;0.57;;;0.57;;
42332;SDS011;27984;51.476;5.702;2023-07-20T12:19:29;1.10;;;0.60;;
42332;SDS011;27984;51.476;5.702;2023-07-20T12:21:57;1.75;;;0.70;;
42332;SDS011;27984;51.476;5.702;2023-07-20T12:24:26;1.60;;;0.65;;
42332;SDS011;27984;51.476;5.702;2023-07-20T12:26:55;3.22;;;0.80;;
42332;SDS011;27984;51.476;5.702;2023-07-20T12:29:24;1.60;;;0.50;;
42332;SDS011;27984;51.476;5.702;2023-07-20T12:31:51;0.82;;;0.60;;
42332;SDS011;27984;51.476;5.702;2023-07-20T12:34:17;1.17;;;0.60;;
42332;SDS011;27984;51.476;5.702;2023-07-20T12:36:43;1.17;;;0.70;;
42332;SDS011;27984;51.476;5.702;2023-07-20T12:39:09;1.85;;;0.63;;
42332;SDS011;27984;51.476;5.702;2023-07-20T12:41:35;0.63;;;0.63;;
42332;SDS011;27984;51.476;5.702;2023-07-20T12:44:01;2.88;;;0.50;;
42332;SDS011;27984;51.476;5.702;2023-07-20T12:46:27;2.05;;;0.50;;
42332;SDS011;27984;51.476;5.702;2023-07-20T12:48:54;2.50;;;0.50;;
42332;SDS011;27984;51.476;5.702;2023-07-20T12:51:20;1.90;;;0.50;;
42332;SDS011;27984;51.476;5.702;2023-07-20T12:53:46;2.95;;;0.70;;
42332;SDS011;27984;51.476;5.702;2023-07-20T12:56:12;0.70;;;0.57;;
42332;SDS011;27984;51.476;5.702;2023-07-20T12:58:38;2.60;;;0.50;;
42332;SDS011;27984;51.476;5.702;2023-07-20T13:01:04;2.67;;;0.65;;
42332;SDS011;27984;51.476;5.702;2023-07-20T13:03:30;0.70;;;0.68;;
42332;SDS011;27984;51.476;5.702;2023-07-20T13:05:56;0.95;;;0.60;;
42332;SDS011;27984;51.476;5.702;2023-07-20T13:08:23;2.10;;;0.82;;
42332;SDS011;27984;51.476;5.702;2023-07-20T13:10:50;1.92;;;0.75;;
42332;SDS011;27984;51.476;5.702;2023-07-20T13:13:16;1.13;;;0.68;;
42332;SDS011;27984;51.476;5.702;2023-07-20T13:15:43;0.95;;;0.60;;
42332;SDS011;27984;51.476;5.702;2023-07-20T13:18:11;0.95;;;0.70;;
42332;SDS011;27984;51.476;5.702;2023-07-20T13:20:37;1.38;;;0.60;;
42332;SDS011;27984;51.476;5.702;2023-07-20T13:23:03;1.08;;;0.60;;
42332;SDS011;27984;51.476;5.702;2023-07-20T13:25:29;0.95;;;0.70;;
42332;SDS011;27984;51.476;5.702;2023-07-20T13:27:55;1.60;;;0.65;;
42332;SDS011;27984;51.476;5.702;2023-07-20T13:30:21;2.22;;;0.60;;
42332;SDS011;27984;51.476;5.702;2023-07-20T13:32:48;2.60;;;0.70;;
42332;SDS011;27984;51.476;5.702;2023-07-20T13:35:14;1.00;;;0.60;;
42332;SDS011;27984;51.476;5.702;2023-07-20T13:37:41;1.33;;;0.75;;
42332;SDS011;27984;51.476;5.702;2023-07-20T13:40:07;1.98;;;0.80;;
42332;SDS011;27984;51.476;5.702;2023-07-20T13:42:37;1.63;;;0.75;;
42332;SDS011;27984;51.476;5.702;2023-07-20T13:45:03;2.83;;;0.60;;
42332;SDS011;27984;51.476;5.702;2023-07-20T13:47:29;4.00;;;0.80;;
42332;SDS011;27984;51.476;5.702;2023-07-20T13:49:55;1.40;;;0.63;;
42332;SDS011;27984;51.476;5.702;2023-07-20T13:52:21;1.35;;;0.90;;
42332;SDS011;27984;51.476;5.702;2023-07-20T13:54:47;4.97;;;1.10;;
42332;SDS011;27984;51.476;5.702;2023-07-20T13:57:13;1.98;;;0.65;;
42332;SDS011;27984;51.476;5.702;2023-07-20T13:59:40;1.63;;;0.73;;
42332;SDS011;27984;51.476;5.702;2023-07-20T14:02:06;1.95;;;0.90;;
42332;SDS011;27984;51.476;5.702;2023-07-20T14:04:32;2.15;;;0.63;;
42332;SDS011;27984;51.476;5.702;2023-07-20T14:06:58;2.45;;;0.60;;
42332;SDS011;27984;51.476;5.702;2023-07-20T14:09:25;1.45;;;0.70;;
42332;SDS011;27984;51.476;5.702;2023-07-20T14:11:51;1.27;;;0.60;;
42332;SDS011;27984;51.476;5.702;2023-07-20T14:14:17;2.08;;;0.55;;
42332;SDS011;27984;51.476;5.702;2023-07-20T14:16:43;2.13;;;0.77;;
42332;SDS011;27984;51.476;5.702;2023-07-20T14:19:09;1.23;;;0.70;;
42332;SDS011;27984;51.476;5.702;2023-07-20T14:21:35;0.70;;;0.70;;
42332;SDS011;27984;51.476;5.702;2023-07-20T14:24:01;1.58;;;0.80;;
42332;SDS011;27984;51.476;5.702;2023-07-20T14:26:27;1.27;;;0.63;;
42332;SDS011;27984;51.476;5.702;2023-07-20T14:28:53;2.15;;;0.70;;
42332;SDS011;27984;51.476;5.702;2023-07-20T14:31:19;1.77;;;0.70;;
42332;SDS011;27984;51.476;5.702;2023-07-20T14:33:45;3.92;;;0.73;;
42332;SDS011;27984;51.476;5.702;2023-07-20T14:36:11;1.30;;;0.80;;
42332;SDS011;27984;51.476;5.702;2023-07-20T14:38:37;1.65;;;0.80;;
42332;SDS011;27984;51.476;5.702;2023-07-20T14:41:03;2.72;;;1.00;;
42332;SDS011;27984;51.476;5.702;2023-07-20T14:43:30;3.08;;;0.85;;
42332;SDS011;27984;51.476;5.702;2023-07-20T14:45:56;3.25;;;0.80;;
42332;SDS011;27984;51.476;5.702;2023-07-20T14:48:22;1.27;;;0.80;;
42332;SDS011;27984;51.476;5.702;2023-07-20T14:50:48;1.40;;;0.85;;